Nearby METAR Reports

 

KOJC - Olathe/Executive, Kansas, USA
Distance from station: N 14mi, 23km
Updated: Tue, 24-May-2022 9:53am CDT
Light rain, Overcast
Light rain, Overcast
 Wind from E
Wind: E 13 mph , 20 km/h, Gust: 22 mph , 35 km/h
Temperature: 54°F , 12°C
Dew Point: 52°F , 11°C
Humidity: 94%
Barometer: 29.98 inHg , 1015.2 hPa
Summary: Light rain
Clouds: Overcast
Visibility: 8 miles , 13 km
Cloud details: Mostly cloudy 700 ft
Mostly cloudy 2000 ft
Overcast 9000 ft
2022/05/24 14:53 KOJC 241453Z 08011G19KT 8SM -RA BKN007 BKN020 OVC090 12/11 A2998 RMK AO2 SLP148 P0003 60026 T01220111 58014
KIXD - Olathe/Industria, Kansas, USA
Distance from station: NW 15mi, 25km
Updated: Tue, 24-May-2022 9:53am CDT
Light rain, Overcast
Light rain, Overcast
 Wind from ENE
Wind: ENE 18 mph , 30 km/h, Gust: 26 mph , 43 km/h
Temperature: 54°F , 12°C
Dew Point: 52°F , 11°C
Humidity: 94%
Barometer: 29.97 inHg , 1014.9 hPa
Summary: Light rain
Clouds: Overcast
Visibility: 7 miles , 11 km
Cloud details: Mostly cloudy 700 ft
Overcast 7000 ft
2022/05/24 14:53 KIXD 241453Z 07016G23KT 7SM -RA BKN007 OVC070 12/11 A2997 RMK AO2 SLP146 P0004 60024 T01220111 58017
 
KLXT - Lees Summit Muni, Missouri, USA
Distance from station: NE 28mi, 46km
Updated: Tue, 24-May-2022 9:53am CDT
Light rain, Overcast
Light rain, Overcast
 Wind from ENE
Wind: ENE 12 mph , 19 km/h, Gust: 22 mph , 35 km/h
Temperature: 55°F , 13°C
Dew Point: 54°F , 12°C
Humidity: 94%
Barometer: 30.00 inHg , 1015.9 hPa
Summary: Light rain
Clouds: Overcast
Visibility: 10 miles , 16 km
Cloud details: Partly cloudy 8000 ft
Overcast 9500 ft
2022/05/24 14:53 KLXT 241453Z AUTO 07010G19KT 10SM -RA SCT080 OVC095 13/12 A3000 RMK AO2 SLP156 P0002 60017 T01280117 58016
KMKC - Kansas City/Dntn, Missouri, USA
Distance from station: N 33mi, 53km
Updated: Tue, 24-May-2022 9:54am CDT
Light rain, Overcast
Light rain, Overcast
 Wind from ENE
Wind: ENE 12 mph , 19 km/h, Gust: 21 mph , 33 km/h
Temperature: 55°F , 13°C
Dew Point: 52°F , 11°C
Humidity: 88%
Barometer: 29.99 inHg , 1015.6 hPa
Summary: Light rain
Clouds: Overcast
Visibility: 10 miles , 16 km
Cloud details: Overcast 9500 ft
2022/05/24 14:54 KMKC 241454Z 07010G18KT 10SM -RA OVC095 13/11 A2999 RMK AO2 SLP151 P0000 60012 T01330111 58017
 
KLWC - Lawrence, Kansas, USA
Distance from station: NW 38mi, 61km
Updated: Tue, 24-May-2022 9:52am CDT
Rain, Mist, Overcast
Rain, Mist, Overcast
 Wind from E
Wind: E 14 mph , 22 km/h, Gust: 23 mph , 37 km/h
Temperature: 55°F , 13°C
Dew Point: 54°F , 12°C
Humidity: 94%
Barometer: 29.97 inHg , 1014.9 hPa
Summary: Rain, Mist
Clouds: Overcast
Visibility: 4 miles , 6 km
Cloud details: Overcast 900 ft
2022/05/24 14:52 KLWC 241452Z AUTO 08012G20KT 4SM RA BR OVC009 13/12 A2997 RMK AO1 CIG 006V012 SLP146 P0009 60031 T01330117 58016
KFOE - Topeka/Forbes, Kansas, USA
Distance from station: WNW 43mi, 70km
Updated: Tue, 24-May-2022 9:53am CDT
Light rain, Mist, Overcast
Light rain, Mist, Overcast
 Wind from E
Wind: E 15 mph , 24 km/h, Gust: 26 mph , 43 km/h
Temperature: 55°F , 13°C
Dew Point: 54°F , 12°C
Humidity: 94%
Barometer: 29.93 inHg , 1013.5 hPa
Summary: Light rain, Mist
Clouds: Overcast
Visibility: 6 miles , 10 km
Cloud details: Overcast 500 ft
2022/05/24 14:53 KFOE 241453Z 08013G23KT 6SM -RA BR OVC005 13/12 A2993 RMK AO2 SLP131 P0004 60021 T01330117 58022
 
KMCI - Kansas City/Intl, Missouri, USA
Distance from station: N 45mi, 73km
Updated: Tue, 24-May-2022 9:53am CDT
Light rain, Overcast
Light rain, Overcast
 Wind from E
Wind: E 13 mph , 20 km/h, Gust: 24 mph , 39 km/h
Temperature: 55°F , 13°C
Dew Point: 52°F , 11°C
Humidity: 88%
Barometer: 30.01 inHg , 1016.3 hPa
Summary: Light rain
Clouds: Overcast
Visibility: 9 miles , 14 km
Cloud details: Few Clouds 800 ft
Mostly cloudy 2000 ft
Overcast 4000 ft
2022/05/24 14:53 KMCI 241453Z 08011G21KT 9SM -RA FEW008 BKN020 OVC040 13/11 A3001 RMK AO2 RAE26B51 SLP157 P0001 60016 T01330111 58010
KRCM - Warrensburg Skyh, Missouri, USA
Distance from station: ENE 49mi, 80km
Updated: Tue, 24-May-2022 9:55am CDT
Light drizzle, Overcast
Light drizzle, Overcast
 Wind from ENE
Wind: ENE 9 mph , 15 km/h
Temperature: 54°F , 12°C
Dew Point: 52°F , 11°C
Humidity: 94%
Barometer: 30.02 inHg , 1016.6 hPa
Summary: Light Drizzle
Clouds: Overcast
Visibility: 10 miles , 16 km
Cloud details: Overcast 2700 ft
2022/05/24 14:55 KRCM 241455Z AUTO 06008KT 10SM -DZ OVC027 12/11 A3002 RMK AO2